WETTERDATEN

GESTERN
Time Temp. Taup. r.Fe. Windrich Windstärke Windböe Druck 1h Prec. 24h Prec.
00:06 19 12.5 66 152 0.8 1.7 1013.5 0.0000 0.0000
00:16 18.8 12.3 66 128 0.8 1.7 1013.5 0.0000 0.0000
00:26 18.7 12.2 66 131 0.8 2.2 1013.5 0.0000 0.0000
00:36 18.6 11.9 65 150 0.8 1.7 1013.5 0.0000 0.0000
00:46 18.5 11.8 65 159 0.8 1.4 1013.5 0.0000 0.0000
00:57 18.4 11.7 65 214 0.8 1.4 1013.6 0.0000 0.0000
01:07 18.3 11.6 65 206 0.8 1.7 1013.7 0.0000 0.0000
01:16 18.2 11.5 65 183 0.8 1.4 1013.6 0.0000 0.0000
01:27 18 11.6 66 216 0.8 1.1 1013.7 0.0000 0.0000
01:37 17.8 11.4 66 228 0.8 1.1 1013.7 0.0000 0.0000
01:47 17.7 11.3 66 225 0.8 1.1 1013.6 0.0000 0.0000
01:57 17.6 11.2 66 187 0.3 1.1 1013.6 0.0000 0.0000
02:07 17.5 11.1 66 161 0.3 1.1 1013.5 0.0000 0.0000
02:17 17.5 11.1 66 146 0.3 1.1 1013.4 0.0000 0.0000
02:27 17.4 11.2 67 220 0.8 1.4 1013.3 0.0000 0.0000
02:37 17.2 11 67 176 0.3 1.1 1013.2 0.0000 0.0000
02:48 17.1 10.9 67 183 0.3 1.1 1013.2 0.0000 0.0000
02:57 16.9 10.7 67 175 0.3 1.1 1013.2 0.0000 0.0000
03:07 16.7 10.8 68 90 0.3 1.1 1013.1 0.0000 0.0000
03:18 16.5 10.8 69 180 0.3 0.8 1013 0.0000 0.0000
03:28 16.4 10.7 69 225 0.3 0.8 1012.9 0.0000 0.0000
03:37 16.2 10.5 69 135 0.3 1.1 1012.9 0.0000 0.0000
03:48 16.1 10.6 70 225 0.3 0.8 1012.9 0.0000 0.0000
03:58 15.9 10.4 70 135 0.3 0.8 1012.9 0.0000 0.0000
04:08 15.8 10.3 70 168 0.3 1.1 1012.8 0.0000 0.0000
04:18 15.6 10.2 70 225 0.3 0.8 1012.8 0.0000 0.0000
04:29 15.5 10.3 71 210 0.3 0.8 1012.8 0.0000 0.0000
04:38 15.4 10.2 71 225 0.3 0.8 1012.9 0.0000 0.0000
04:48 15.2 10 71 225 0.3 0.8 1012.8 0.0000 0.0000
04:58 15.1 10.1 72 135 0.3 0.8 1012.8 0.0000 0.0000
05:09 15 10 72 153 0.3 0.8 1012.9 0.0000 0.0000
05:18 14.9 9.9 72 216 0.3 0.8 1012.8 0.0000 0.0000
05:28 14.8 9.8 72 213 0.3 0.8 1012.9 0.0000 0.0000
05:39 14.7 9.9 73 180 0.3 1.1 1012.9 0.0000 0.0000
05:49 14.6 9.8 73 213 0.3 1.1 1012.9 0.0000 0.0000
05:59 14.5 9.7 73 225 0.3 0.8 1012.8 0.0000 0.0000
06:09 14.4 9.6 73 270 0.3 1.1 1012.9 0.0000 0.0000
06:19 14.4 9.6 73 225 0.3 0.8 1012.8 0.0000 0.0000
06:29 14.3 9.5 73 225 0.3 1.1 1012.8 0.0000 0.0000
06:39 14.4 9.8 74 270 0.3 1.1 1012.8 0.0000 0.0000
06:50 14.5 9.9 74 270 0.3 0.8 1012.8 0.0000 0.0000
06:59 14.6 10 74 225 0.3 1.1 1012.8 0.0000 0.0000
07:09 14.7 10.1 74 240 0.3 1.1 1012.8 0.0000 0.0000
07:19 14.9 10.3 74 270 0.3 1.1 1012.8 0.0000 0.0000
07:30 15.1 10.3 73 225 0.3 1.1 1012.6 0.0000 0.0000
07:40 15.2 10.4 73 270 0.3 0.8 1012.6 0.0000 0.0000
07:49 15.4 10.6 73 270 0.3 1.1 1012.7 0.0000 0.0000
08:00 15.6 10.8 73 270 0.3 1.4 1012.6 0.0000 0.0000
08:10 15.8 10.8 72 270 0.3 1.4 1012.6 0.0000 0.0000
08:20 16.1 11.1 72 270 0.3 1.1 1012.6 0.0000 0.0000
08:30 16.3 11 71 225 0.3 1.1 1012.6 0.0000 0.0000
08:40 16.5 11.2 71 115 0.8 1.7 1012.6 0.0000 0.0000
08:50 16.8 11.3 70 146 0.3 1.4 1012.5 0.0000 0.0000
09:00 17.1 11.6 70 249 0.8 1.4 1012.5 0.0000 0.0000
09:11 17.3 11.6 69 251 0.8 1.1 1012.5 0.0000 0.0000
09:20 17.4 11.7 69 206 0.8 1.4 1012.4 0.0000 0.0000
09:30 17.6 11.9 69 90 0.3 1.1 1012.4 0.0000 0.0000
09:40 17.8 12 69 270 0.8 1.1 1012.4 0.0000 0.0000
09:51 18 12 68 212 0.8 1.7 1012.3 0.0000 0.0000
10:01 18.1 12.1 68 225 0.8 1.4 1012.3 0.0000 0.0000
10:10 18.3 12.3 68 196 0.8 1.7 1012.3 0.0000 0.0000
10:21 18.4 12.2 67 252 0.8 2.2 1012.3 0.0000 0.0000
10:31 18.8 12.3 66 186 0.8 2.2 1012.2 0.0000 0.0000
10:41 19 12.3 65 156 1.1 1.7 1012.1 0.0000 0.0000
10:51 19.3 12.3 64 244 1.1 2.5 1012.2 0.0000 0.0000
11:01 19.4 12.2 63 227 1.1 2.2 1012 0.0000 0.0000
11:11 19.7 12.2 62 180 1.1 2.8 1012 0.0000 0.0000
11:21 20 12.5 62 225 0.8 1.7 1012 0.0000 0.0000
11:32 20.2 12.4 61 196 0.8 1.4 1012 0.0000 0.0000
11:42 20.8 12.8 60 212 0.8 2.8 1011.9 0.0000 0.0000
11:51 21.5 13.2 59 192 0.3 1.4 1011.9 0.0000 0.0000
12:01 23.8 13.9 54 219 0.8 1.4 1011.8 0.0000 0.0000
12:12 25.6 14.4 50 189 1.1 2.8 1011.7 0.0000 0.0000
12:22 27.2 14.6 46 182 0.8 1.7 1011.7 0.0000 0.0000
12:32 27.2 14.6 46 121 1.1 2.8 1011.6 0.0000 0.0000
12:42 27.6 14.6 45 199 1.1 2.2 1011.3 0.0000 0.0000
12:52 28.3 14.5 43 90 1.1 3.6 1011.2 0.0000 0.0000
13:02 26.6 14.7 48 198 0.8 1.4 1011.1 0.0000 0.0000
13:12 27 14.4 46 145 1.1 2.8 1011.2 0.0000 0.0000
13:23 27.4 14.4 45 210 1.1 2.5 1011.1 0.0000 0.0000
13:32 28.3 14.2 42 187 1.1 2.5 1011 0.0000 0.0000
13:42 28 14.3 43 251 1.1 2.5 1010.9 0.0000 0.0000
13:52 27.6 13.5 42 101 1.1 3.1 1010.8 0.0000 0.0000
14:03 28.1 13.6 41 90 1.1 2.8 1010.8 0.0000 0.0000
14:12 27.8 13.4 41 180 0.8 2.8 1010.7 0.0000 0.0000
14:22 26.5 12.9 43 185 0.8 2.2 1010.7 0.0000 0.0000
14:33 26 12.5 43 109 0.8 2.2 1010.6 0.0000 0.0000
14:43 25.4 11.9 43 90 1.1 2.2 1010.5 0.0000 0.0000
14:53 25 11.6 43 90 1.1 3.1 1010.4 0.0000 0.0000
15:03 24.8 11.7 44 149 1.1 2.5 1010.4 0.0000 0.0000
15:13 24.4 11 43 90 1.1 2.5 1010.4 0.0000 0.0000
15:23 24.1 11.4 45 90 1.1 2.2 1010.4 0.0000 0.0000
15:33 23.8 11.2 45 104 0.8 2.2 1010.4 0.0000 0.0000
15:44 23.5 10.6 44 99 1.1 2.8 1010.4 0.0000 0.0000
15:53 23.3 10.7 45 90 0.8 1.7 1010.2 0.0000 0.0000
16:03 23.2 10.6 45 90 0.8 2.2 1010.1 0.0000 0.0000
16:13 23 10.8 46 104 0.8 2.5 1010 0.0000 0.0000
16:24 22.8 10.6 46 90 0.8 2.5 1009.9 0.0000 0.0000
16:34 22.8 10.6 46 90 0.8 2.5 1009.9 0.0000 0.0000
16:43 22.8 10.6 46 79 0.8 2.5 1009.8 0.0000 0.0000
16:54 22.7 10.5 46 90 0.8 2.2 1009.8 0.0000 0.0000
17:04 22.7 11.1 48 90 0.8 2.8 1009.7 0.0000 0.0000
17:14 22.9 11.3 48 90 0.8 2.5 1009.8 0.0000 0.0000
17:24 22.9 11.6 49 106 0.8 1.7 1009.8 0.0000 0.0000
17:34 22.8 11.5 49 108 0.8 2.8 1009.7 0.0000 0.0000
17:44 22.7 11.4 49 90 1.1 2.8 1009.8 0.0000 0.0000
17:54 22.3 11.7 51 115 1.1 2.8 1009.8 0.0000 0.0000
18:05 22 12.3 54 108 0.8 2.2 1009.8 0.0000 0.0000
18:14 21.8 12.4 55 206 0.8 2.8 1009.7 0.0000 0.0000
18:24 21.5 12.4 56 220 0.8 2.8 1009.7 0.0000 0.0000
18:34 21.3 12.4 57 206 0.8 2.8 1009.8 0.0000 0.0000
18:45 21.1 12.3 57 225 0.8 2.2 1009.8 0.0000 0.0000
18:55 21 12.4 58 270 0.8 1.4 1009.8 0.0000 0.0000
19:04 20.9 12.3 58 244 0.8 1.7 1009.9 0.0000 0.0000
19:15 20.9 12.6 59 254 0.8 1.7 1009.9 0.0000 0.0000
19:25 20.8 12.5 59 257 0.8 1.4 1009.9 0.0000 0.0000
19:35 20.8 12.5 59 254 0.8 1.4 1009.9 0.0000 0.0000
19:45 20.8 12.5 59 270 0.3 1.1 1009.8 0.0000 0.0000
19:55 20.8 12.5 59 90 0.3 1.4 1009.8 0.0000 0.0000
20:05 20.7 12.4 59 90 0.3 1.4 1009.8 0.0000 0.0000
20:15 20.6 12.3 59 90 0.3 1.4 1009.7 0.0000 0.0000
20:26 20.5 12.2 59 90 0.3 1.4 1009.7 0.0000 0.0000
20:36 20.5 12.5 60 90 0.3 1.7 1009.7 0.0000 0.0000
20:45 20.4 12.1 59 90 0.3 2.2 1009.8 0.0000 0.0000
20:55 20.3 12 59 90 0.8 1.7 1009.8 0.0000 0.0000
21:06 20.3 12 59 90 0.3 1.1 1009.9 0.0000 0.0000
21:16 20.2 11.7 58 90 0.3 1.1 1010 0.0000 0.0000
21:25 20.2 11.7 58 90 0.3 1.4 1010.1 0.0000 0.0000
21:36 20.2 11.9 59 90 0.3 1.1 1010.2 0.0000 0.0000
21:46 20.1 11.6 58 90 0.3 1.7 1010.2 0.0000 0.0000
21:56 20.1 11.6 58 90 0.3 1.7 1010.2 0.0000 0.0000
22:06 20 11.5 58 90 0.8 2.8 1010.4 0.0000 0.0000
22:16 19.8 11.8 60 115 1.1 3.1 1010.4 0.0000 0.0000
22:26 19.7 12 61 120 1.1 3.1 1010.6 0.0000 0.0000
22:36 19.5 12 62 90 0.8 2.2 1010.6 0.0000 0.0000
22:47 19.3 12.1 63 119 1.1 2.8 1010.6 0.0000 0.0000
22:57 19.2 12.2 64 128 1.1 2.8 1010.8 0.0000 0.0000
23:06 19.1 12.1 64 90 1.1 2.8 1010.9 0.0000 0.0000
23:16 19 12 64 90 0.8 2.8 1011.2 0.0000 0.0000
23:27 18.9 11.9 64 149 0.8 2.2 1011.3 0.0000 0.0000
23:37 18.9 11.9 64 208 0.8 1.7 1011.6 0.0000 0.0000
23:47 18.9 11.9 64 185 0.8 2.5 1011.6 0.0000 0.0000
23:57 18.9 11.9 64 174 0.8 2.2 1011.7 0.0000

TAGESSTATISTIK

2020-08-03
TEMPERATUR
MITTEL
19.8
MAXIMUM
28.3
12:52
MINIMUM
14.3
06:29
LUFTDRUCK
MITTEL
1011.6
MAXIMUM
1013.7
01:07
MINIMUM
1009.7
17:04
TAUPUNKT
MITTEL
11.7
MAXIMUM
14.7
13:02
MINIMUM
9.5
06:29
FEUCHTIGKEIT
MITTEL
61
MAXIMUM
74
06:39
MINIMUM
41
14:03
WINDSTÄRKE
MITTEL
0.7
MAXIMUM
1.1
10:41
WINDBÖE
MITTEL
1.8
MAXIMUM
3.6
12:52
WINDRICHTUNG
VORHERRSCHENDE
O
29.4%
N
0.0
NO
0.0
O
29.4
SO
14.7
S
16.8
SW
25.9
W
13.3
NW
0.0
NIEDERSCHLAG
REGEN STUNDE
0.0
REGEN TAG
0.0
TEMPERATUR (°C)
MINIMUM
14.3
MAXIMUM
28.3
MITTEL
19.8
LUFTDRUCK (hpa)
MINIMUM
1009.7
MAXIMUM
1013.7
MITTEL
1011.6
MESSGERÄT